Flight Track Log - Related Links

Times and Time Zones

All times are in EDT time to prevent confusion due to time zone crossing. See the KAP165 flight status page for this flight to view local times or setup timezone preferences in your user account.

Time Position Orientation Groundspeed Altitude Reporting Facility
EDT Latitude Longitude Course Direction KTS MPH feet Rate Location/Type
Mon 10:24:50 PM 38.7500 -90.4167 218° Southwest 124 143 2,100  Level Gateway (St. Louis) TRACON
Mon 10:25:50 PM 38.7167 -90.4167 180° South 137 158 2,500 450 Climbing Gateway (St. Louis) TRACON
Mon 10:26:50 PM 38.6667 -90.4000 165° South 140 161 3,000 500 Climbing Gateway (St. Louis) TRACON
Mon 10:27:50 PM 38.6500 -90.3667 123° Southeast 144 166 3,500 500 Climbing Gateway (St. Louis) TRACON
Mon 10:28:50 PM 38.6167 -90.3167 130° Southeast 150 173 4,000 446 Climbing Gateway (St. Louis) TRACON
Mon 10:29:00 PM 38.5688 -90.1196 133° Southeast  Level Estimated
Mon 10:30:18 PM 38.5856 -90.2653 128° Southeast 148 170 4,600  Level Kansas City Center
Mon 10:31:19 PM 38.5578 -90.2225 130° Southeast 153 176 5,000 244 Climbing Kansas City Center
Mon 10:32:21 PM 38.5267 -90.1747 130° Southeast 172 198 5,100 49 Climbing Kansas City Center
Mon 10:33:22 PM 38.4875 -90.1144 130° Southeast 182 209 5,100  Level Kansas City Center
Mon 10:34:24 PM 38.4547 -90.0650 130° Southeast 182 209 5,100 -49 Level Kansas City Center
Mon 10:35:25 PM 38.4217 -90.0142 130° Southeast 182 209 5,000 -49 Descending Kansas City Center
Mon 10:36:26 PM 38.3867 -89.9606 130° Southeast 182 209 5,000  Level Kansas City Center
Mon 10:37:29 PM 38.3547 -89.9117 130° Southeast 182 209 5,000  Level Kansas City Center
Mon 10:38:29 PM 38.3217 -89.8633 131° Southeast 182 209 5,000 50 Level Kansas City Center
Mon 10:39:30 PM 38.2878 -89.8108 129° Southeast 181 208 5,100  Climbing Kansas City Center
Mon 10:40:32 PM 38.2564 -89.7639 130° Southeast 178 205 5,000 -49 Descending Kansas City Center
Mon 10:41:32 PM 38.2256 -89.7164 130° Southeast 177 204 5,000  Level Kansas City Center
Mon 10:42:33 PM 38.1933 -89.6678 130° Southeast 177 204 5,000  Level Kansas City Center
Mon 10:43:36 PM 38.1589 -89.6158 130° Southeast 178 205 5,000  Level Kansas City Center
Mon 10:44:36 PM 38.1264 -89.5681 131° Southeast 178 205 5,000  Level Kansas City Center
Mon 10:45:37 PM 38.0947 -89.5197 130° Southeast 178 205 5,000  Level Kansas City Center
Mon 10:46:38 PM 38.0608 -89.4683 130° Southeast 178 205 5,000  Level Kansas City Center
Mon 10:47:41 PM 38.0286 -89.4208 131° Southeast 178 205 5,000  Level Kansas City Center
Mon 10:48:42 PM 37.9975 -89.3728 129° Southeast 178 205 5,000  Level Kansas City Center
Mon 10:49:43 PM 37.9647 -89.3244 131° Southeast 179 206 5,000  Level Kansas City Center
Mon 10:50:43 PM 37.9297 -89.2739 131° Southeast 179 206 5,000  Level Kansas City Center

Login

Don't have an account? Register now (free) for customized features, flight alerts, and more!